Terminal Aerodrome Forecast
Issued by NWS

Home | Current Version | Previous Version | Text Only | Print | Product List | Glossary On
Versions: 1 2 3 4 5 6 7 8 9 10 11 12 13
000
FTUS41 KPBZ 301100
TAFBVI
TAF
KBVI 301138Z 3012/0112 00000KT 4SM BR SKC
      TEMPO 3012/3013 2SM BR
     FM301300 23004KT P6SM SCT100
     FM301600 27006KT 5SM -SHRA VCTS BKN050CB
     FM302200 35005KT P6SM BKN035=

USA.gov is the U.S. government's official web portal to all federal, state and local government web resources and services.